sensor_id;sensor_type;location;lat;lon;timestamp;temperature;humidity
53272;DHT22;39160;48.580;7.756;2022-08-21T00:00:21;22.30;72.00
53272;DHT22;39160;48.580;7.756;2022-08-21T00:05:12;22.20;72.60
53272;DHT22;39160;48.580;7.756;2022-08-21T00:10:04;22.30;72.90
53272;DHT22;39160;48.580;7.756;2022-08-21T00:14:55;22.20;73.80
53272;DHT22;39160;48.580;7.756;2022-08-21T00:19:45;22.00;74.30
53272;DHT22;39160;48.580;7.756;2022-08-21T00:24:36;21.90;75.20
53272;DHT22;39160;48.580;7.756;2022-08-21T00:29:27;22.10;75.70
53272;DHT22;39160;48.580;7.756;2022-08-21T00:34:17;22.10;76.10
53272;DHT22;39160;48.580;7.756;2022-08-21T00:39:09;22.10;76.70
53272;DHT22;39160;48.580;7.756;2022-08-21T00:44:00;22.00;77.10
53272;DHT22;39160;48.580;7.756;2022-08-21T00:48:51;22.00;77.70
53272;DHT22;39160;48.580;7.756;2022-08-21T00:53:43;21.90;78.30
53272;DHT22;39160;48.580;7.756;2022-08-21T00:58:35;21.80;79.20
53272;DHT22;39160;48.580;7.756;2022-08-21T01:03:27;21.60;79.90
53272;DHT22;39160;48.580;7.756;2022-08-21T01:08:19;21.40;80.50
53272;DHT22;39160;48.580;7.756;2022-08-21T01:13:12;21.50;81.20
53272;DHT22;39160;48.580;7.756;2022-08-21T01:18:08;21.40;82.10
53272;DHT22;39160;48.580;7.756;2022-08-21T01:23:01;21.40;82.70
53272;DHT22;39160;48.580;7.756;2022-08-21T01:27:52;21.00;84.20
53272;DHT22;39160;48.580;7.756;2022-08-21T01:32:44;21.00;84.90
53272;DHT22;39160;48.580;7.756;2022-08-21T01:37:35;21.00;85.70
53272;DHT22;39160;48.580;7.756;2022-08-21T01:42:26;20.90;87.00
53272;DHT22;39160;48.580;7.756;2022-08-21T01:47:17;20.90;88.10
53272;DHT22;39160;48.580;7.756;2022-08-21T01:52:08;20.90;88.80
53272;DHT22;39160;48.580;7.756;2022-08-21T01:57:00;21.10;89.80
53272;DHT22;39160;48.580;7.756;2022-08-21T02:01:51;21.10;90.00
53272;DHT22;39160;48.580;7.756;2022-08-21T02:06:44;20.60;90.90
53272;DHT22;39160;48.580;7.756;2022-08-21T02:11:35;20.50;91.50
53272;DHT22;39160;48.580;7.756;2022-08-21T02:16:26;20.60;91.90
53272;DHT22;39160;48.580;7.756;2022-08-21T02:21:16;20.80;92.10
53272;DHT22;39160;48.580;7.756;2022-08-21T02:26:08;20.90;92.20
53272;DHT22;39160;48.580;7.756;2022-08-21T02:30:59;20.80;92.60
53272;DHT22;39160;48.580;7.756;2022-08-21T02:35:51;20.70;93.00
53272;DHT22;39160;48.580;7.756;2022-08-21T02:40:45;20.80;93.40
53272;DHT22;39160;48.580;7.756;2022-08-21T02:45:38;20.50;93.70
53272;DHT22;39160;48.580;7.756;2022-08-21T02:50:33;20.30;94.10
53272;DHT22;39160;48.580;7.756;2022-08-21T02:55:28;20.30;94.40
53272;DHT22;39160;48.580;7.756;2022-08-21T03:00:21;20.20;94.70
53272;DHT22;39160;48.580;7.756;2022-08-21T03:05:12;20.00;95.20
53272;DHT22;39160;48.580;7.756;2022-08-21T03:10:05;20.10;95.30
53272;DHT22;39160;48.580;7.756;2022-08-21T03:14:56;20.10;95.50
53272;DHT22;39160;48.580;7.756;2022-08-21T03:19:48;20.20;95.60
53272;DHT22;39160;48.580;7.756;2022-08-21T03:24:38;20.30;95.70
53272;DHT22;39160;48.580;7.756;2022-08-21T03:29:29;20.20;95.60
53272;DHT22;39160;48.580;7.756;2022-08-21T03:34:20;20.10;95.90
53272;DHT22;39160;48.580;7.756;2022-08-21T03:39:11;20.20;95.90
53272;DHT22;39160;48.580;7.756;2022-08-21T03:44:02;20.00;96.10
53272;DHT22;39160;48.580;7.756;2022-08-21T03:48:52;20.10;96.10
53272;DHT22;39160;48.580;7.756;2022-08-21T03:53:44;20.10;96.20
53272;DHT22;39160;48.580;7.756;2022-08-21T03:58:35;20.10;96.20
53272;DHT22;39160;48.580;7.756;2022-08-21T04:03:26;20.10;96.20
53272;DHT22;39160;48.580;7.756;2022-08-21T04:08:17;20.00;96.40
53272;DHT22;39160;48.580;7.756;2022-08-21T04:13:09;19.90;96.60
53272;DHT22;39160;48.580;7.756;2022-08-21T04:17:59;19.80;96.70
53272;DHT22;39160;48.580;7.756;2022-08-21T04:22:50;19.80;96.90
53272;DHT22;39160;48.580;7.756;2022-08-21T04:27:42;19.70;96.90
53272;DHT22;39160;48.580;7.756;2022-08-21T04:32:32;19.60;97.00
53272;DHT22;39160;48.580;7.756;2022-08-21T04:37:23;19.40;97.40
53272;DHT22;39160;48.580;7.756;2022-08-21T04:42:14;19.60;97.40
53272;DHT22;39160;48.580;7.756;2022-08-21T04:47:05;19.40;97.40
53272;DHT22;39160;48.580;7.756;2022-08-21T04:51:56;19.50;97.60
53272;DHT22;39160;48.580;7.756;2022-08-21T04:57:15;19.70;97.60
53272;DHT22;39160;48.580;7.756;2022-08-21T05:02:08;19.80;97.70
53272;DHT22;39160;48.580;7.756;2022-08-21T05:07:02;19.80;97.70
53272;DHT22;39160;48.580;7.756;2022-08-21T05:11:53;19.80;97.80
53272;DHT22;39160;48.580;7.756;2022-08-21T05:16:45;19.90;97.80
53272;DHT22;39160;48.580;7.756;2022-08-21T05:21:38;19.90;97.90
53272;DHT22;39160;48.580;7.756;2022-08-21T05:26:29;19.90;97.90
53272;DHT22;39160;48.580;7.756;2022-08-21T05:31:20;19.80;97.80
53272;DHT22;39160;48.580;7.756;2022-08-21T05:36:11;19.90;97.90
53272;DHT22;39160;48.580;7.756;2022-08-21T05:41:01;19.80;98.10
53272;DHT22;39160;48.580;7.756;2022-08-21T05:45:52;19.90;97.90
53272;DHT22;39160;48.580;7.756;2022-08-21T05:50:44;19.90;98.00
53272;DHT22;39160;48.580;7.756;2022-08-21T05:55:36;19.80;98.00
53272;DHT22;39160;48.580;7.756;2022-08-21T06:00:27;19.90;98.00
53272;DHT22;39160;48.580;7.756;2022-08-21T06:05:18;19.90;97.90
53272;DHT22;39160;48.580;7.756;2022-08-21T06:10:09;19.90;98.10
53272;DHT22;39160;48.580;7.756;2022-08-21T06:14:59;19.90;97.90
53272;DHT22;39160;48.580;7.756;2022-08-21T06:19:52;20.10;97.70
53272;DHT22;39160;48.580;7.756;2022-08-21T06:24:43;20.10;97.70
53272;DHT22;39160;48.580;7.756;2022-08-21T06:29:34;20.20;97.60
53272;DHT22;39160;48.580;7.756;2022-08-21T06:34:25;20.20;97.50
53272;DHT22;39160;48.580;7.756;2022-08-21T06:39:15;20.40;97.30
53272;DHT22;39160;48.580;7.756;2022-08-21T06:44:06;20.60;97.10
53272;DHT22;39160;48.580;7.756;2022-08-21T06:48:57;20.70;97.00
53272;DHT22;39160;48.580;7.756;2022-08-21T06:53:49;20.80;96.90
53272;DHT22;39160;48.580;7.756;2022-08-21T06:58:39;20.70;96.80
53272;DHT22;39160;48.580;7.756;2022-08-21T07:03:36;20.80;96.70
53272;DHT22;39160;48.580;7.756;2022-08-21T07:08:27;21.00;96.50
53272;DHT22;39160;48.580;7.756;2022-08-21T07:13:18;21.10;96.30
53272;DHT22;39160;48.580;7.756;2022-08-21T07:18:09;21.10;96.30
53272;DHT22;39160;48.580;7.756;2022-08-21T07:23:03;21.20;96.10
53272;DHT22;39160;48.580;7.756;2022-08-21T07:27:55;21.30;96.00
53272;DHT22;39160;48.580;7.756;2022-08-21T07:32:45;21.50;95.90
53272;DHT22;39160;48.580;7.756;2022-08-21T07:37:39;21.60;95.70
53272;DHT22;39160;48.580;7.756;2022-08-21T07:42:30;21.70;95.60
53272;DHT22;39160;48.580;7.756;2022-08-21T07:47:20;21.90;95.40
53272;DHT22;39160;48.580;7.756;2022-08-21T07:52:11;22.10;95.10
53272;DHT22;39160;48.580;7.756;2022-08-21T07:57:02;22.30;94.80
53272;DHT22;39160;48.580;7.756;2022-08-21T08:01:52;22.70;94.50
53272;DHT22;39160;48.580;7.756;2022-08-21T08:06:43;23.00;94.20
53272;DHT22;39160;48.580;7.756;2022-08-21T08:11:35;23.20;93.90
53272;DHT22;39160;48.580;7.756;2022-08-21T08:16:28;23.10;93.80
53272;DHT22;39160;48.580;7.756;2022-08-21T08:21:19;23.20;93.70
53272;DHT22;39160;48.580;7.756;2022-08-21T08:26:11;23.10;93.50
53272;DHT22;39160;48.580;7.756;2022-08-21T08:31:02;23.00;93.40
53272;DHT22;39160;48.580;7.756;2022-08-21T08:35:53;23.20;93.20
53272;DHT22;39160;48.580;7.756;2022-08-21T08:41:16;23.10;93.10
53272;DHT22;39160;48.580;7.756;2022-08-21T08:46:13;23.20;92.70
53272;DHT22;39160;48.580;7.756;2022-08-21T08:51:07;23.30;92.60
53272;DHT22;39160;48.580;7.756;2022-08-21T08:56:00;23.40;92.40
53272;DHT22;39160;48.580;7.756;2022-08-21T09:00:54;23.60;92.20
53272;DHT22;39160;48.580;7.756;2022-08-21T09:05:49;23.60;92.10
53272;DHT22;39160;48.580;7.756;2022-08-21T09:11:04;23.60;92.00
53272;DHT22;39160;48.580;7.756;2022-08-21T09:26:21;24.00;91.30
53272;DHT22;39160;48.580;7.756;2022-08-21T09:31:34;24.10;91.30
53272;DHT22;39160;48.580;7.756;2022-08-21T09:36:44;24.10;91.00
53272;DHT22;39160;48.580;7.756;2022-08-21T09:41:36;24.30;90.90
53272;DHT22;39160;48.580;7.756;2022-08-21T09:46:27;24.40;90.80
53272;DHT22;39160;48.580;7.756;2022-08-21T09:51:25;24.50;90.80
53272;DHT22;39160;48.580;7.756;2022-08-21T10:01:27;24.60;90.30
53272;DHT22;39160;48.580;7.756;2022-08-21T10:06:27;24.70;90.10
53272;DHT22;39160;48.580;7.756;2022-08-21T10:11:24;24.70;89.90
53272;DHT22;39160;48.580;7.756;2022-08-21T10:26:57;25.00;88.20
53272;DHT22;39160;48.580;7.756;2022-08-21T10:42:24;25.50;86.00
53272;DHT22;39160;48.580;7.756;2022-08-21T10:47:20;25.80;85.20
53272;DHT22;39160;48.580;7.756;2022-08-21T10:57:27;25.70;83.60
53272;DHT22;39160;48.580;7.756;2022-08-21T11:07:30;26.00;82.80
53272;DHT22;39160;48.580;7.756;2022-08-21T11:12:35;25.80;82.00
53272;DHT22;39160;48.580;7.756;2022-08-21T11:18:04;25.90;81.10
53272;DHT22;39160;48.580;7.756;2022-08-21T11:23:10;26.00;80.00
53272;DHT22;39160;48.580;7.756;2022-08-21T11:28:24;26.00;79.80
53272;DHT22;39160;48.580;7.756;2022-08-21T11:33:39;26.30;78.10
53272;DHT22;39160;48.580;7.756;2022-08-21T11:38:41;26.50;77.80
53272;DHT22;39160;48.580;7.756;2022-08-21T11:44:16;26.50;77.10
53272;DHT22;39160;48.580;7.756;2022-08-21T11:54:28;26.90;75.00
53272;DHT22;39160;48.580;7.756;2022-08-21T11:59:25;27.00;74.20
53272;DHT22;39160;48.580;7.756;2022-08-21T12:14:18;27.20;71.10
53272;DHT22;39160;48.580;7.756;2022-08-21T12:19:12;27.30;70.50
53272;DHT22;39160;48.580;7.756;2022-08-21T12:29:21;28.20;67.60
53272;DHT22;39160;48.580;7.756;2022-08-21T12:34:15;28.70;67.30
53272;DHT22;39160;48.580;7.756;2022-08-21T12:39:12;29.20;66.50
53272;DHT22;39160;48.580;7.756;2022-08-21T12:44:08;29.50;65.60
53272;DHT22;39160;48.580;7.756;2022-08-21T12:49:07;29.60;64.70
53272;DHT22;39160;48.580;7.756;2022-08-21T12:53:59;29.80;63.30
53272;DHT22;39160;48.580;7.756;2022-08-21T12:59:11;30.00;61.80
53272;DHT22;39160;48.580;7.756;2022-08-21T13:04:08;30.60;58.50
53272;DHT22;39160;48.580;7.756;2022-08-21T13:09:07;31.00;58.10
53272;DHT22;39160;48.580;7.756;2022-08-21T13:13:57;31.60;56.30
53272;DHT22;39160;48.580;7.756;2022-08-21T13:19:05;32.10;55.70
53272;DHT22;39160;48.580;7.756;2022-08-21T13:29:11;34.20;51.10
53272;DHT22;39160;48.580;7.756;2022-08-21T13:34:02;34.80;49.40
53272;DHT22;39160;48.580;7.756;2022-08-21T13:38:54;35.20;47.90
53272;DHT22;39160;48.580;7.756;2022-08-21T13:43:51;36.40;46.20
53272;DHT22;39160;48.580;7.756;2022-08-21T13:48:46;36.80;44.80
53272;DHT22;39160;48.580;7.756;2022-08-21T13:53:47;37.50;43.60
53272;DHT22;39160;48.580;7.756;2022-08-21T13:58:44;38.00;42.20
53272;DHT22;39160;48.580;7.756;2022-08-21T14:03:37;37.50;41.70
53272;DHT22;39160;48.580;7.756;2022-08-21T14:08:35;37.70;40.90
53272;DHT22;39160;48.580;7.756;2022-08-21T14:18:29;37.30;38.80
53272;DHT22;39160;48.580;7.756;2022-08-21T14:23:26;37.50;38.70
53272;DHT22;39160;48.580;7.756;2022-08-21T14:28:24;37.50;38.10
53272;DHT22;39160;48.580;7.756;2022-08-21T14:38:19;38.40;37.00
53272;DHT22;39160;48.580;7.756;2022-08-21T14:43:10;38.10;36.70
53272;DHT22;39160;48.580;7.756;2022-08-21T14:48:01;37.80;36.60
53272;DHT22;39160;48.580;7.756;2022-08-21T14:52:52;38.80;36.50
53272;DHT22;39160;48.580;7.756;2022-08-21T14:57:45;38.60;35.10
53272;DHT22;39160;48.580;7.756;2022-08-21T15:02:36;38.80;34.40
53272;DHT22;39160;48.580;7.756;2022-08-21T15:07:27;38.90;33.90
53272;DHT22;39160;48.580;7.756;2022-08-21T15:12:18;38.90;33.20
53272;DHT22;39160;48.580;7.756;2022-08-21T15:17:10;39.00;32.70
53272;DHT22;39160;48.580;7.756;2022-08-21T15:22:01;39.80;32.10
53272;DHT22;39160;48.580;7.756;2022-08-21T15:26:52;39.60;32.10
53272;DHT22;39160;48.580;7.756;2022-08-21T15:37:06;39.50;30.60
53272;DHT22;39160;48.580;7.756;2022-08-21T15:41:58;40.20;30.50
53272;DHT22;39160;48.580;7.756;2022-08-21T15:46:49;40.60;30.20
53272;DHT22;39160;48.580;7.756;2022-08-21T15:51:40;41.40;30.00
53272;DHT22;39160;48.580;7.756;2022-08-21T15:56:37;42.30;29.50
53272;DHT22;39160;48.580;7.756;2022-08-21T16:01:28;42.00;29.20
53272;DHT22;39160;48.580;7.756;2022-08-21T16:06:19;42.40;29.10
53272;DHT22;39160;48.580;7.756;2022-08-21T16:11:11;43.40;28.90
53272;DHT22;39160;48.580;7.756;2022-08-21T16:16:04;44.60;28.50
53272;DHT22;39160;48.580;7.756;2022-08-21T16:20:56;44.70;28.20
53272;DHT22;39160;48.580;7.756;2022-08-21T16:25:47;44.60;28.00
53272;DHT22;39160;48.580;7.756;2022-08-21T16:30:37;44.90;27.80
53272;DHT22;39160;48.580;7.756;2022-08-21T16:35:28;39.50;28.60
53272;DHT22;39160;48.580;7.756;2022-08-21T16:40:21;39.80;28.60
53272;DHT22;39160;48.580;7.756;2022-08-21T16:45:15;41.50;28.00
53272;DHT22;39160;48.580;7.756;2022-08-21T16:50:07;42.30;27.40
53272;DHT22;39160;48.580;7.756;2022-08-21T16:54:58;38.10;28.20
53272;DHT22;39160;48.580;7.756;2022-08-21T16:59:49;35.30;29.50
53272;DHT22;39160;48.580;7.756;2022-08-21T17:04:39;34.70;29.90
53272;DHT22;39160;48.580;7.756;2022-08-21T17:09:30;34.50;30.00
53272;DHT22;39160;48.580;7.756;2022-08-21T17:14:22;33.50;30.80
53272;DHT22;39160;48.580;7.756;2022-08-21T17:19:13;33.00;31.70
53272;DHT22;39160;48.580;7.756;2022-08-21T17:24:04;33.60;31.70
53272;DHT22;39160;48.580;7.756;2022-08-21T17:28:55;33.00;32.30
53272;DHT22;39160;48.580;7.756;2022-08-21T17:33:48;32.20;33.10
53272;DHT22;39160;48.580;7.756;2022-08-21T17:38:40;31.60;33.70
53272;DHT22;39160;48.580;7.756;2022-08-21T17:43:31;31.20;34.00
53272;DHT22;39160;48.580;7.756;2022-08-21T17:48:22;31.10;34.20
53272;DHT22;39160;48.580;7.756;2022-08-21T17:53:13;31.10;34.30
53272;DHT22;39160;48.580;7.756;2022-08-21T17:58:03;31.00;34.50
53272;DHT22;39160;48.580;7.756;2022-08-21T18:03:06;30.80;34.70
53272;DHT22;39160;48.580;7.756;2022-08-21T18:08:02;30.70;34.90
53272;DHT22;39160;48.580;7.756;2022-08-21T18:12:53;30.50;35.10
53272;DHT22;39160;48.580;7.756;2022-08-21T18:17:46;30.30;35.30
53272;DHT22;39160;48.580;7.756;2022-08-21T18:22:37;30.20;35.40
53272;DHT22;39160;48.580;7.756;2022-08-21T18:27:28;30.10;35.60
53272;DHT22;39160;48.580;7.756;2022-08-21T18:32:22;30.00;35.80
53272;DHT22;39160;48.580;7.756;2022-08-21T18:37:13;29.80;36.00
53272;DHT22;39160;48.580;7.756;2022-08-21T18:42:13;29.70;36.10
53272;DHT22;39160;48.580;7.756;2022-08-21T18:47:10;29.60;36.40
53272;DHT22;39160;48.580;7.756;2022-08-21T18:52:02;29.50;36.30
53272;DHT22;39160;48.580;7.756;2022-08-21T18:56:53;29.40;36.70
53272;DHT22;39160;48.580;7.756;2022-08-21T19:01:43;29.30;36.90
53272;DHT22;39160;48.580;7.756;2022-08-21T19:06:34;29.10;37.10
53272;DHT22;39160;48.580;7.756;2022-08-21T19:11:27;28.70;37.50
53272;DHT22;39160;48.580;7.756;2022-08-21T19:16:18;28.40;37.80
53272;DHT22;39160;48.580;7.756;2022-08-21T19:21:10;28.30;37.70
53272;DHT22;39160;48.580;7.756;2022-08-21T19:26:02;28.20;37.90
53272;DHT22;39160;48.580;7.756;2022-08-21T19:31:04;28.30;38.10
53272;DHT22;39160;48.580;7.756;2022-08-21T19:35:56;28.40;38.10
53272;DHT22;39160;48.580;7.756;2022-08-21T19:40:47;28.20;39.10
53272;DHT22;39160;48.580;7.756;2022-08-21T19:45:38;28.40;38.50
53272;DHT22;39160;48.580;7.756;2022-08-21T19:50:29;28.30;38.60
53272;DHT22;39160;48.580;7.756;2022-08-21T19:55:19;28.20;39.00
53272;DHT22;39160;48.580;7.756;2022-08-21T20:00:10;28.00;39.90
53272;DHT22;39160;48.580;7.756;2022-08-21T20:05:03;27.80;39.50
53272;DHT22;39160;48.580;7.756;2022-08-21T20:09:55;27.60;40.00
53272;DHT22;39160;48.580;7.756;2022-08-21T20:14:46;27.90;40.10
53272;DHT22;39160;48.580;7.756;2022-08-21T20:19:38;27.70;40.20
53272;DHT22;39160;48.580;7.756;2022-08-21T20:24:29;27.60;40.60
53272;DHT22;39160;48.580;7.756;2022-08-21T20:29:20;27.50;40.90
53272;DHT22;39160;48.580;7.756;2022-08-21T20:34:11;27.40;41.20
53272;DHT22;39160;48.580;7.756;2022-08-21T20:39:03;27.00;41.70
53272;DHT22;39160;48.580;7.756;2022-08-21T20:43:54;27.30;41.90
53272;DHT22;39160;48.580;7.756;2022-08-21T20:48:46;27.20;42.00
53272;DHT22;39160;48.580;7.756;2022-08-21T21:04:44;26.80;43.00
53272;DHT22;39160;48.580;7.756;2022-08-21T21:09:44;27.00;43.20
53272;DHT22;39160;48.580;7.756;2022-08-21T21:14:42;27.10;43.20
53272;DHT22;39160;48.580;7.756;2022-08-21T21:29:38;27.10;43.70
53272;DHT22;39160;48.580;7.756;2022-08-21T21:34:36;27.20;44.00
53272;DHT22;39160;48.580;7.756;2022-08-21T21:39:48;27.00;44.30
53272;DHT22;39160;48.580;7.756;2022-08-21T21:45:12;26.80;44.80
53272;DHT22;39160;48.580;7.756;2022-08-21T22:00:24;26.70;45.60
53272;DHT22;39160;48.580;7.756;2022-08-21T22:10:33;26.50;46.50
53272;DHT22;39160;48.580;7.756;2022-08-21T22:15:27;26.50;46.40
53272;DHT22;39160;48.580;7.756;2022-08-21T22:25:35;26.50;46.90
53272;DHT22;39160;48.580;7.756;2022-08-21T22:35:31;26.50;47.10
53272;DHT22;39160;48.580;7.756;2022-08-21T22:40:26;26.50;47.40
53272;DHT22;39160;48.580;7.756;2022-08-21T22:45:19;26.50;47.60
53272;DHT22;39160;48.580;7.756;2022-08-21T22:50:21;26.50;47.80
53272;DHT22;39160;48.580;7.756;2022-08-21T23:00:16;26.30;48.20
53272;DHT22;39160;48.580;7.756;2022-08-21T23:05:32;26.00;48.60
53272;DHT22;39160;48.580;7.756;2022-08-21T23:10:30;25.80;49.10
53272;DHT22;39160;48.580;7.756;2022-08-21T23:15:21;25.90;49.00
53272;DHT22;39160;48.580;7.756;2022-08-21T23:20:37;26.00;49.10
53272;DHT22;39160;48.580;7.756;2022-08-21T23:25:52;26.10;49.30
53272;DHT22;39160;48.580;7.756;2022-08-21T23:35:54;26.00;49.40
53272;DHT22;39160;48.580;7.756;2022-08-21T23:41:23;25.90;49.60
53272;DHT22;39160;48.580;7.756;2022-08-21T23:46:51;25.80;49.80
53272;DHT22;39160;48.580;7.756;2022-08-21T23:51:59;25.60;49.90
